Aviation Digital Data Service (ADDS)

Output produced by METARs form (1217 UTC 15 November 2018)
found at http://www.aviationweather.gov/metar/data/
 
KEAR 151141Z 1512/1612 25005KT P6SM SKC 
     FM151500 30006KT P6SM FEW250 
     FM151800 33014G20KT P6SM SKC 
     FM152000 33019G27KT P6SM SKC 
     FM160000 32009KT P6SM SKC 
     FM160600 29005KT P6SM SKC
       
KEAT 151130Z 1512/1612 00000KT 6SM BR OVC005 
     FM160100 VRB03KT P6SM SCT009 OVC080
       
KEAU 151120Z 1512/1612 17010KT P6SM FEW250 
     FM151800 19011KT P6SM SCT120 
     FM160100 23006KT P6SM BKN035 OVC070 
     FM160400 28008KT 4SM -SHSN OVC022 
     FM160800 29009KT P6SM OVC025
       
KECG 151141Z 1512/1612 05016G24KT P6SM -RA OVC040 
     FM151300 07018G28KT 5SM -RA OVC015 
     FM151500 07018G28KT 2SM RA BR OVC008 
     FM151900 10014G22KT 2SM +RA BR OVC005 
     FM152200 24012G20KT P6SM OVC006 
     FM160800 26014G22KT P6SM BKN020 
     FM161000 27014G24KT P6SM SCT250
       
TAF KEDW 151000Z 1510/1616 VRB06KT 9999 BKN300 QNH3021INS 1606/1607 VRB06KT 9999
BKN250 QNH3007INS 1612/1613 VRB06KT 9999 BKN200 QNH3008INS TX21/1523Z TN01/1514Z
       
KEED 151120Z 1512/1612 32005KT P6SM FEW250 
     FM151700 01009KT P6SM FEW250 
     FM160200 28004KT P6SM SCT250
       
KEET 151138Z 1512/1612 30010KT P6SM OVC010 
     TEMPO 1512/1514 -SN OVC007 
     FM151700 30010KT P6SM BKN020 
     FM152100 30010KT P6SM SCT025 BKN050 
     FM160000 00000KT P6SM SKC
       
TAF KEFD 150400Z 1504/1610 33006KT 9999 SKC QNH3031INS 
     BECMG 1517/1518 27006KT 9999 SKC QNH3024INS TX12/1522Z TN01/1513Z
       
KEGE 151124Z 1512/1612 00000KT P6SM SKC 
     FM151900 28004KT P6SM SKC 
     FM160200 VRB03KT P6SM SKC
       
TAF KEGI 151000Z 1510/1616 32012G20KT 9999 BKN005 BKN015 QNH3014INS 
     BECMG 1512/1513 32012G20KT 9999 SCT010 BKN020 BKN150 QNH3011INS 
     BECMG 1519/1520 32006KT 9999 SKC QNH3014INS TX10/1521Z TN04/1513Z LAST NO
AMDS AFT 1510 NEXT 1514
       
KEKN 151120Z 1512/1612 13009G17KT 5SM FZRA BR OVC035 
     TEMPO 1514/1517 2SM -RA BR OVC025 
     FM151700 12007KT 3SM -RA BR OVC025 
     TEMPO 1517/1521 1SM -RA BR OVC012 
     FM152100 10009G15KT 6SM -RA BR OVC025 
     FM160000 12005KT 6SM -PLRA OVC012 
     FM160200 00000KT 5SM -PLSN OVC009 
     FM160300 29004KT 5SM -SN OVC008 
     FM160700 27011G25KT 6SM -SN OVC012 
     FM161100 27009G16KT P6SM OVC014
       
KZZV 151136Z 1512/1612 09008KT 4SM -FZRA BKN035 
     FM151500 11009KT 3SM -RA BR OVC015 
     FM152200 VRB04KT 2SM -RASN BR OVC008 
     FM160100 23006KT 1SM -SN BR OVC004 
     FM160800 25011KT 4SM -SHSN OVC015
       
KELP 151136Z 1512/1612 VRB05KT P6SM BKN250 
     FM151800 08005KT P6SM SKC
       
KELY 151124Z 1512/1612 17010KT P6SM SCT250 
     FM151700 36005KT P6SM SCT250 
     FM160200 17008KT P6SM SCT250
       
KEKO 151124Z 1512/1612 VRB04KT P6SM SCT250
       
TAF KEND 151100Z 1511/1617 28009KT 9999 SKC QNH2998INS TX16/1521Z TNM04/1512Z
       
KENV 151120Z 1512/1612 VRB03KT P6SM SCT200 
     FM160200 27005KT P6SM SKC
       
KENW 151120Z 1512/1612 VRB03KT P6SM BKN200 
     FM151700 15005KT P6SM VCSH BKN020 
     FM152100 19006KT P6SM BKN035 
     FM160900 25012G18KT P6SM BKN015
       
KERI 151143Z 1512/1612 10004KT P6SM OVC070 
     FM151600 14010KT 6SM -FZRASN OVC035 
     TEMPO 1518/1520 4SM -FZRASN OVC012 
     FM152000 15008KT 2SM -RASN OVC008 
     FM160900 22012KT P6SM OVC010
       
KEUG 151140Z 1512/1612 00000KT 2SM BR OVC009 
     FM151900 36003KT 4SM BR OVC011 
     FM152200 01006KT P6SM BKN015 
     FM160400 VRB02KT 1SM BR BKN005 BKN015
       
KEUL 151120Z 1512/1612 VRB03KT P6SM SCT150
       
KEVV 151120Z 1512/1612 VRB03KT 3SM -SN BR SCT002 OVC010 
     TEMPO 1512/1515 1SM -SN BR OVC002 
     FM151500 VRB05KT 4SM -SN BR SCT006 OVC015 
     FM152100 26008KT P6SM SCT015 OVC025 
     FM160300 24005KT P6SM SCT025 BKN035 
     FM160600 VRB03KT P6SM SCT035 
     FM160900 VRB03KT P6SM SKC
       
KEVW 151120Z 1512/1612 26009KT P6SM SCT200 
     FM152000 27011KT P6SM SCT180 
     FM160400 23007KT P6SM SCT180
       
KEWN 151121Z 1512/1612 05016G22KT 5SM -RA BR BKN015 OVC025 
     FM151600 15014G19KT 5SM -RA BKN015 WS020/17040KT 
     FM152100 25010KT P6SM VCSH OVC020 
     FM160500 27012G22KT P6SM SCT015
       
KEWR 151124Z 1512/1618 04010KT P6SM OVC200 
     FM151400 06008KT P6SM OVC120 
     FM151700 06011KT 2SM -SNPL BKN030 OVC080 
     TEMPO 1517/1519 1SM -SN BKN015 OVC030 
     FM152100 06012G20KT 2SM -RAPL OVC010 
     FM160100 05015G25KT 4SM -RA BR OVC009 
     FM160300 04017G30KT 4SM -RA BR OVC010 WS020/09050KT 
     FM160900 01015G25KT 4SM -RA BR OVC010 
     FM161200 32017G27KT P6SM VCSH BKN015 BKN030 
     FM161500 30018G25KT P6SM SCT040
       
KEYW 151128Z 1512/1612 31010KT P6SM VCSH SCT010 BKN050 
     FM151500 33012G20KT P6SM SCT015 BKN040 
     FM152200 35016G24KT P6SM SCT020 BKN035